Time;durP1;ratioP1;P1;durP2;ratioP2;P2;SDS_P1;SDS_P2;PMS_P1;PMS_P2;Temp;Humidity;BMP_temperature;BMP_pressure;BME280_temperature;BME280_humidity;BME280_pressure;Samples;Min_cycle;Max_cycle;Signal;HPM_P1;HPM_P2
2022/12/04 00:01:49;;;;;;;42.88;20.52;;;;;;;;;;6244302;23;20004;-63
2022/12/04 00:04:15;;;;;;;50.20;22.88;;;;;;;;;;6244326;23;20008;-63
2022/12/04 00:06:41;;;;;;;51.80;23.10;;;;;;;;;;6244822;23;20018;-63
2022/12/04 00:09:07;;;;;;;47.67;21.83;;;;;;;;;;6244316;23;20008;-63
2022/12/04 00:11:34;;;;;;;52.58;23.48;;;;;;;;;;6244759;23;20000;-63
2022/12/04 00:14:01;;;;;;;49.25;23.00;;;;;;;;;;6244121;23;20018;-63
2022/12/04 00:16:28;;;;;;;52.08;23.42;;;;;;;;;;6244147;23;20004;-63
2022/12/04 00:18:54;;;;;;;53.38;22.85;;;;;;;;;;6244657;23;20008;-63
2022/12/04 00:21:21;;;;;;;49.42;22.77;;;;;;;;;;6244477;23;20083;-63
2022/12/04 00:23:48;;;;;;;48.55;21.83;;;;;;;;;;6244403;23;20027;-63
2022/12/04 00:26:21;;;;;;;48.35;22.33;;;;;;;;;;6244285;22;20461;-63
2022/12/04 00:28:48;;;;;;;48.85;22.02;;;;;;;;;;6244743;23;20012;-63
2022/12/04 00:31:16;;;;;;;45.60;21.45;;;;;;;;;;6244045;23;20008;-63
2022/12/04 00:33:42;;;;;;;47.28;22.58;;;;;;;;;;6244452;23;20012;-63
2022/12/04 00:36:10;;;;;;;51.25;22.33;;;;;;;;;;6244272;23;20000;-63
2022/12/04 00:38:37;;;;;;;46.75;20.20;;;;;;;;;;6244422;23;20040;-63
2022/12/04 00:41:03;;;;;;;44.45;21.80;;;;;;;;;;6244610;23;20501;-63
2022/12/04 00:43:30;;;;;;;44.97;21.63;;;;;;;;;;6244556;23;20087;-63
2022/12/04 00:45:56;;;;;;;52.42;21.75;;;;;;;;;;6244242;23;20004;-63
2022/12/04 00:48:22;;;;;;;50.15;22.42;;;;;;;;;;6243962;23;20004;-63
2022/12/04 00:50:48;;;;;;;49.17;22.15;;;;;;;;;;6244632;23;20022;-63
2022/12/04 00:53:15;;;;;;;44.67;21.20;;;;;;;;;;6244359;23;20082;-63
2022/12/04 00:55:41;;;;;;;44.25;21.17;;;;;;;;;;6244530;23;20000;-63
2022/12/04 00:58:07;;;;;;;46.85;21.85;;;;;;;;;;6244233;23;20453;-63
2022/12/04 01:00:35;;;;;;;49.45;21.98;;;;;;;;;;6244108;23;20008;-63
2022/12/04 01:03:02;;;;;;;48.83;21.65;;;;;;;;;;6244548;23;20358;-63
2022/12/04 01:05:28;;;;;;;48.58;21.38;;;;;;;;;;6244440;23;20074;-63
2022/12/04 01:07:54;;;;;;;51.78;24.02;;;;;;;;;;6244352;23;20458;-63
2022/12/04 01:10:20;;;;;;;49.63;22.77;;;;;;;;;;6244030;23;20000;-63
2022/12/04 01:12:49;;;;;;;46.90;23.05;;;;;;;;;;6244077;23;20016;-63
2022/12/04 01:15:15;;;;;;;51.70;22.58;;;;;;;;;;6245842;23;20000;-63
2022/12/04 01:17:41;;;;;;;48.80;21.52;;;;;;;;;;6246096;23;20081;-63
2022/12/04 01:20:07;;;;;;;51.05;22.58;;;;;;;;;;6246396;23;20319;-63
2022/12/04 01:22:33;;;;;;;48.47;23.23;;;;;;;;;;6245931;23;20338;-63
2022/12/04 01:24:59;;;;;;;45.13;21.02;;;;;;;;;;6246214;23;20004;-63
2022/12/04 01:27:25;;;;;;;43.88;22.13;;;;;;;;;;6245450;23;20477;-63
2022/12/04 01:29:51;;;;;;;48.38;22.42;;;;;;;;;;6245955;23;20031;-63
2022/12/04 01:32:17;;;;;;;57.08;25.27;;;;;;;;;;6245883;23;20446;-63
2022/12/04 01:34:44;;;;;;;51.17;22.75;;;;;;;;;;6246049;23;19996;-63
2022/12/04 01:37:10;;;;;;;50.28;22.33;;;;;;;;;;6246114;22;20027;-63
2022/12/04 01:39:37;;;;;;;52.83;22.40;;;;;;;;;;6245799;23;20339;-63
2022/12/04 01:42:03;;;;;;;53.90;23.33;;;;;;;;;;6245870;23;20012;-63
2022/12/04 01:44:30;;;;;;;48.05;23.10;;;;;;;;;;6245533;23;20319;-63
2022/12/04 01:46:57;;;;;;;52.30;23.85;;;;;;;;;;6246105;23;20007;-63
2022/12/04 01:49:32;;;;;;;51.50;24.10;;;;;;;;;;6245679;23;20004;-63
2022/12/04 01:52:00;;;;;;;56.55;23.23;;;;;;;;;;6246589;23;20007;-63
2022/12/04 01:54:31;;;;;;;50.72;23.05;;;;;;;;;;6245645;23;20071;-63
2022/12/04 01:57:00;;;;;;;50.13;23.35;;;;;;;;;;6245734;23;20028;-63
2022/12/04 01:59:29;;;;;;;44.38;20.98;;;;;;;;;;6245562;23;20004;-63
2022/12/04 02:02:15;;;;;;;47.55;21.20;;;;;;;;;;6246279;23;20330;-63
2022/12/04 02:04:41;;;;;;;45.90;20.88;;;;;;;;;;6245642;23;20008;-63
2022/12/04 02:07:08;;;;;;;50.15;22.60;;;;;;;;;;6245850;23;20525;-63
2022/12/04 02:09:35;;;;;;;42.17;21.23;;;;;;;;;;6245699;22;20005;-63
2022/12/04 02:12:16;;;;;;;53.10;24.63;;;;;;;;;;6245444;23;20004;-63
2022/12/04 02:14:57;;;;;;;51.63;23.15;;;;;;;;;;6245625;23;20008;-63
2022/12/04 02:17:32;;;;;;;49.35;23.73;;;;;;;;;;6245546;23;20079;-63
2022/12/04 02:20:14;;;;;;;50.42;22.50;;;;;;;;;;6246028;23;20012;-63
2022/12/04 02:22:46;;;;;;;52.72;23.23;;;;;;;;;;6245565;23;20008;-63
2022/12/04 02:25:31;;;;;;;53.85;24.10;;;;;;;;;;6244795;23;20015;-63
2022/12/04 02:28:00;;;;;;;53.30;23.88;;;;;;;;;;6245485;23;20087;-63
2022/12/04 02:30:27;;;;;;;46.28;22.80;;;;;;;;;;6245266;23;20004;-63
2022/12/04 02:32:53;;;;;;;44.72;21.38;;;;;;;;;;6245471;23;20000;-63
2022/12/04 02:35:19;;;;;;;50.25;22.02;;;;;;;;;;6245592;23;20003;-63
2022/12/04 02:37:47;;;;;;;48.00;21.30;;;;;;;;;;6245498;23;20377;-63
2022/12/04 02:40:13;;;;;;;50.38;21.90;;;;;;;;;;6245164;23;20035;-63
2022/12/04 02:42:41;;;;;;;54.78;22.25;;;;;;;;;;6244991;23;20011;-63
2022/12/04 02:45:12;;;;;;;46.97;21.60;;;;;;;;;;6245521;23;20004;-63
2022/12/04 02:47:40;;;;;;;44.15;22.45;;;;;;;;;;6245101;23;20012;-63
2022/12/04 02:50:08;;;;;;;51.03;21.55;;;;;;;;;;6245361;23;20008;-63
2022/12/04 02:52:36;;;;;;;44.38;21.75;;;;;;;;;;6244709;23;20008;-63
2022/12/04 02:55:05;;;;;;;44.85;21.85;;;;;;;;;;6245055;23;20067;-63
2022/12/04 02:57:33;;;;;;;49.05;22.55;;;;;;;;;;6245217;23;19996;-63
2022/12/04 03:00:01;;;;;;;52.03;24.65;;;;;;;;;;6245445;23;20028;-63
2022/12/04 03:02:37;;;;;;;44.42;21.33;;;;;;;;;;6245222;23;20008;-63
2022/12/04 03:05:06;;;;;;;53.05;23.02;;;;;;;;;;6245091;23;20004;-63
2022/12/04 03:07:36;;;;;;;51.53;22.30;;;;;;;;;;6244945;23;20004;-63
2022/12/04 03:10:05;;;;;;;57.08;24.52;;;;;;;;;;6244778;23;20350;-63
2022/12/04 03:12:42;;;;;;;52.03;24.73;;;;;;;;;;6244762;23;20012;-63
2022/12/04 03:15:12;;;;;;;58.53;22.63;;;;;;;;;;6245110;23;20000;-63
2022/12/04 03:17:53;;;;;;;52.25;22.88;;;;;;;;;;6244664;23;20034;-63
2022/12/04 03:20:19;;;;;;;47.00;22.85;;;;;;;;;;6245318;23;20008;-63
2022/12/04 03:22:49;;;;;;;53.33;24.80;;;;;;;;;;6244674;23;20008;-63
2022/12/04 03:25:15;;;;;;;51.53;26.10;;;;;;;;;;6244585;23;20061;-63
2022/12/04 03:27:50;;;;;;;54.38;25.83;;;;;;;;;;6244975;23;20011;-63
2022/12/04 03:30:21;;;;;;;51.78;25.20;;;;;;;;;;6244887;23;20046;-63
2022/12/04 03:32:59;;;;;;;54.70;26.10;;;;;;;;;;6244937;23;20031;-63
2022/12/04 03:36:00;;;;;;;56.22;27.10;;;;;;;;;;6244975;23;20000;-63
2022/12/04 03:38:29;;;;;;;55.08;27.83;;;;;;;;;;6122209;23;20016;-63
2022/12/04 03:41:13;;;;;;;57.83;27.67;;;;;;;;;;6122510;23;20371;-63
2022/12/04 03:43:46;;;;;;;55.50;26.95;;;;;;;;;;6122557;23;20010;-63
2022/12/04 03:46:16;;;;;;;57.47;29.10;;;;;;;;;;6122824;23;20034;-63
2022/12/04 03:48:42;;;;;;;63.15;29.35;;;;;;;;;;6122296;23;20523;-63
2022/12/04 03:51:14;;;;;;;55.30;26.83;;;;;;;;;;6122666;23;20006;-63
2022/12/04 03:53:49;;;;;;;57.92;28.15;;;;;;;;;;6122009;23;20368;-63
2022/12/04 03:56:15;;;;;;;54.25;26.55;;;;;;;;;;6122586;23;20010;-63
2022/12/04 03:58:45;;;;;;;54.17;27.48;;;;;;;;;;6122559;23;20017;-63
2022/12/04 04:01:12;;;;;;;51.35;25.50;;;;;;;;;;6122574;23;20053;-63
2022/12/04 04:03:40;;;;;;;48.05;25.48;;;;;;;;;;6122428;23;20002;-63
2022/12/04 04:06:12;;;;;;;49.50;25.73;;;;;;;;;;6098224;23;20056;-63
2022/12/04 04:08:39;;;;;;;57.10;27.30;;;;;;;;;;6122184;23;20513;-63
2022/12/04 04:11:19;;;;;;;53.35;26.90;;;;;;;;;;6122571;23;20033;-63
2022/12/04 04:25:06;;;;;;;57.92;28.85;;;;;;;;;;6244425;23;20317;-63
2022/12/04 04:27:32;;;;;;;55.55;28.45;;;;;;;;;;6244821;23;20004;-63
2022/12/04 04:29:59;;;;;;;59.55;28.65;;;;;;;;;;6244273;23;20008;-63
2022/12/04 04:32:28;;;;;;;52.03;27.10;;;;;;;;;;6244680;23;20083;-63
2022/12/04 04:34:54;;;;;;;49.92;26.00;;;;;;;;;;6244473;23;20031;-63
2022/12/04 04:37:32;;;;;;;47.92;26.02;;;;;;;;;;6244546;23;20005;-63
2022/12/04 04:40:17;;;;;;;57.00;28.85;;;;;;;;;;6244315;23;20512;-63
2022/12/04 04:43:09;;;;;;;53.85;27.98;;;;;;;;;;6244556;23;20015;-63
2022/12/04 04:45:38;;;;;;;58.70;30.30;;;;;;;;;;6122165;23;20018;-63
2022/12/04 04:48:14;;;;;;;48.78;25.17;;;;;;;;;;6122520;23;20076;-63
2022/12/04 04:50:41;;;;;;;51.22;25.55;;;;;;;;;;6123844;23;20056;-63
2022/12/04 04:53:09;;;;;;;49.67;23.83;;;;;;;;;;6124199;23;20372;-63
2022/12/04 04:55:35;;;;;;;44.58;22.80;;;;;;;;;;6124435;23;20044;-63
2022/12/04 04:58:09;;;;;;;42.33;22.65;;;;;;;;;;6124120;23;20001;-63
2022/12/04 05:00:35;;;;;;;46.28;23.00;;;;;;;;;;6124293;23;20096;-63
2022/12/04 05:03:01;;;;;;;38.85;20.92;;;;;;;;;;6123852;23;20010;-63
2022/12/04 05:05:27;;;;;;;41.88;21.08;;;;;;;;;;6123914;23;20029;-64
2022/12/04 05:07:53;;;;;;;42.67;21.55;;;;;;;;;;6124056;23;20059;-63
2022/12/04 05:10:20;;;;;;;43.95;22.15;;;;;;;;;;6124134;23;20020;-63
2022/12/04 05:12:46;;;;;;;42.30;21.85;;;;;;;;;;6123660;23;20018;-63
2022/12/04 05:15:12;;;;;;;46.70;22.08;;;;;;;;;;6124070;23;20065;-63
2022/12/04 05:17:38;;;;;;;41.28;22.23;;;;;;;;;;6099713;23;20010;-63
2022/12/04 05:20:05;;;;;;;45.53;23.25;;;;;;;;;;6123787;23;20014;-63
2022/12/04 05:22:32;;;;;;;50.58;25.15;;;;;;;;;;6194146;23;20015;-63
2022/12/04 05:24:59;;;;;;;45.65;22.90;;;;;;;;;;6246007;23;20004;-63
2022/12/04 05:27:26;;;;;;;42.58;22.90;;;;;;;;;;6246456;23;20008;-63
2022/12/04 05:29:53;;;;;;;45.25;23.65;;;;;;;;;;6245699;23;20051;-63
2022/12/04 05:32:19;;;;;;;44.05;23.83;;;;;;;;;;6246243;23;20000;-63
2022/12/04 05:34:49;;;;;;;42.83;22.13;;;;;;;;;;6245832;23;20008;-63
2022/12/04 05:37:15;;;;;;;47.13;23.73;;;;;;;;;;6246007;23;20003;-63
2022/12/04 05:39:41;;;;;;;50.67;23.98;;;;;;;;;;6245976;23;20035;-63
2022/12/04 05:42:07;;;;;;;46.63;23.48;;;;;;;;;;6245889;23;20035;-63
2022/12/04 05:44:33;;;;;;;45.88;23.77;;;;;;;;;;6246111;23;20050;-63
2022/12/04 05:46:59;;;;;;;47.30;23.70;;;;;;;;;;6245789;23;20007;-63
2022/12/04 05:49:28;;;;;;;45.88;23.25;;;;;;;;;;6245686;23;20091;-63
2022/12/04 05:51:54;;;;;;;48.88;24.50;;;;;;;;;;6245703;23;20342;-63
2022/12/04 05:54:20;;;;;;;48.70;23.35;;;;;;;;;;6245832;23;20506;-63
2022/12/04 05:56:46;;;;;;;50.30;25.90;;;;;;;;;;6245832;23;20042;-63
2022/12/04 05:59:13;;;;;;;48.75;25.40;;;;;;;;;;6245762;23;20012;-63
2022/12/04 06:01:39;;;;;;;50.47;24.77;;;;;;;;;;6246098;23;20071;-63
2022/12/04 06:04:05;;;;;;;54.67;26.42;;;;;;;;;;6245653;23;20011;-63
2022/12/04 06:06:32;;;;;;;54.33;27.65;;;;;;;;;;6245840;23;20442;-63
2022/12/04 06:08:58;;;;;;;52.90;26.58;;;;;;;;;;6245460;23;20008;-63
2022/12/04 06:11:29;;;;;;;48.60;25.60;;;;;;;;;;6246015;23;20070;-63
2022/12/04 06:13:55;;;;;;;61.95;26.23;;;;;;;;;;6245381;23;20438;-63
2022/12/04 06:16:23;;;;;;;50.58;24.35;;;;;;;;;;6245604;23;20000;-63
2022/12/04 06:18:53;;;;;;;47.80;23.75;;;;;;;;;;6245424;23;20544;-63
2022/12/04 06:21:22;;;;;;;50.45;25.13;;;;;;;;;;6245751;23;20008;-63
2022/12/04 06:23:48;;;;;;;52.47;25.80;;;;;;;;;;6245395;23;20453;-63
2022/12/04 06:26:15;;;;;;;52.08;25.45;;;;;;;;;;6245588;23;20019;-63
2022/12/04 06:28:41;;;;;;;48.63;25.60;;;;;;;;;;6245625;23;20004;-63
2022/12/04 06:31:08;;;;;;;55.22;26.30;;;;;;;;;;6245314;23;20004;-63
2022/12/04 06:33:35;;;;;;;51.67;26.50;;;;;;;;;;6243824;23;20000;-63
2022/12/04 06:36:02;;;;;;;55.53;26.13;;;;;;;;;;6243786;23;20004;-63
2022/12/04 06:38:28;;;;;;;53.15;26.70;;;;;;;;;;6244051;23;19997;-63
2022/12/04 06:40:55;;;;;;;54.28;25.63;;;;;;;;;;6244211;23;20080;-63
2022/12/04 06:43:21;;;;;;;54.00;26.67;;;;;;;;;;6243905;23;20091;-63
2022/12/04 06:45:47;;;;;;;50.70;24.55;;;;;;;;;;6242963;23;20515;-63
2022/12/04 06:48:13;;;;;;;56.47;27.50;;;;;;;;;;6243717;23;20007;-63
2022/12/04 06:50:39;;;;;;;45.80;24.70;;;;;;;;;;6244445;23;20012;-63
2022/12/04 06:53:06;;;;;;;50.38;25.38;;;;;;;;;;6242282;23;20327;-63
2022/12/04 06:55:32;;;;;;;50.60;25.88;;;;;;;;;;6243919;23;20011;-63
2022/12/04 06:57:58;;;;;;;55.05;26.65;;;;;;;;;;6243949;23;20004;-63
2022/12/04 07:00:24;;;;;;;53.47;23.90;;;;;;;;;;6244240;22;20019;-63
2022/12/04 07:02:50;;;;;;;56.45;26.85;;;;;;;;;;6243178;23;20042;-63
2022/12/04 07:05:17;;;;;;;53.15;24.95;;;;;;;;;;6243340;23;20020;-63
2022/12/04 07:07:43;;;;;;;53.90;25.45;;;;;;;;;;6243909;23;20346;-63
2022/12/04 07:10:09;;;;;;;50.45;25.23;;;;;;;;;;6243602;23;20004;-63
2022/12/04 07:12:35;;;;;;;50.25;25.25;;;;;;;;;;6243541;23;20008;-63
2022/12/04 07:15:01;;;;;;;51.08;25.15;;;;;;;;;;6243822;23;20011;-63
2022/12/04 07:17:27;;;;;;;47.05;25.30;;;;;;;;;;6243785;23;20000;-63
2022/12/04 07:19:53;;;;;;;53.35;25.27;;;;;;;;;;6243918;23;20011;-63
2022/12/04 07:22:19;;;;;;;49.80;25.63;;;;;;;;;;6243469;23;20063;-63
2022/12/04 07:24:45;;;;;;;46.75;25.10;;;;;;;;;;6243672;23;20054;-63
2022/12/04 07:27:12;;;;;;;51.60;24.92;;;;;;;;;;6243484;23;20023;-63
2022/12/04 07:29:38;;;;;;;50.92;25.83;;;;;;;;;;6243841;23;20369;-63
2022/12/04 07:32:04;;;;;;;55.42;26.55;;;;;;;;;;6243628;23;19997;-63
2022/12/04 07:34:30;;;;;;;54.42;24.88;;;;;;;;;;6243791;23;20008;-63
2022/12/04 07:36:56;;;;;;;54.42;27.02;;;;;;;;;;6244627;23;20007;-63
2022/12/04 07:39:22;;;;;;;56.15;26.98;;;;;;;;;;6244686;23;20011;-63
2022/12/04 07:41:48;;;;;;;52.38;25.50;;;;;;;;;;6244784;23;20011;-63
2022/12/04 07:44:14;;;;;;;50.25;25.83;;;;;;;;;;6244484;23;20347;-63
2022/12/04 07:46:41;;;;;;;54.38;26.30;;;;;;;;;;6243826;22;20502;-63
2022/12/04 07:49:11;;;;;;;49.47;24.35;;;;;;;;;;6243797;23;20341;-63
2022/12/04 07:51:38;;;;;;;51.08;26.08;;;;;;;;;;6244833;22;20022;-63
2022/12/04 07:54:04;;;;;;;48.47;23.67;;;;;;;;;;6244722;23;20007;-63
2022/12/04 07:56:30;;;;;;;53.88;25.60;;;;;;;;;;6244515;23;20008;-63
2022/12/04 07:58:56;;;;;;;56.58;25.45;;;;;;;;;;6244178;23;20013;-63
2022/12/04 08:01:23;;;;;;;49.83;23.42;;;;;;;;;;6244506;23;20012;-63
2022/12/04 08:03:51;;;;;;;52.00;24.73;;;;;;;;;;6244161;23;20000;-63
2022/12/04 08:06:18;;;;;;;60.92;25.77;;;;;;;;;;6244122;23;20008;-64
2022/12/04 08:08:45;;;;;;;55.85;26.15;;;;;;;;;;6243962;23;20343;-63
2022/12/04 08:11:12;;;;;;;57.67;25.27;;;;;;;;;;6243449;23;20011;-64
2022/12/04 08:13:38;;;;;;;53.92;25.65;;;;;;;;;;6242755;23;20008;-63
2022/12/04 08:16:05;;;;;;;59.88;26.08;;;;;;;;;;6243396;23;20035;-62
2022/12/04 08:18:32;;;;;;;54.55;26.55;;;;;;;;;;6243171;23;20001;-62
2022/12/04 08:21:09;;;;;;;53.75;25.90;;;;;;;;;;6243043;23;20015;-62
2022/12/04 08:23:35;;;;;;;56.58;26.40;;;;;;;;;;6244712;23;20377;-63
2022/12/04 08:26:02;;;;;;;53.13;25.67;;;;;;;;;;6245669;23;20015;-63
2022/12/04 08:28:28;;;;;;;56.03;25.30;;;;;;;;;;6244853;23;20513;-64
2022/12/04 08:30:54;;;;;;;53.25;25.60;;;;;;;;;;6245737;23;20004;-64
2022/12/04 08:33:21;;;;;;;51.85;24.80;;;;;;;;;;6245294;23;20452;-64
2022/12/04 08:35:47;;;;;;;53.58;24.25;;;;;;;;;;6245414;23;20007;-64
2022/12/04 08:38:13;;;;;;;54.08;24.75;;;;;;;;;;6245430;23;20007;-64
2022/12/04 08:40:39;;;;;;;56.78;24.90;;;;;;;;;;6245409;23;20450;-64
2022/12/04 08:43:05;;;;;;;53.70;25.40;;;;;;;;;;6246135;23;20039;-64
2022/12/04 08:45:31;;;;;;;53.92;26.60;;;;;;;;;;6246579;23;20012;-63
2022/12/04 08:47:57;;;;;;;56.63;25.52;;;;;;;;;;6246433;23;20078;-63
2022/12/04 08:50:23;;;;;;;55.55;25.90;;;;;;;;;;6246304;23;20342;-63
2022/12/04 08:52:49;;;;;;;53.60;25.77;;;;;;;;;;6246529;23;20512;-63
2022/12/04 08:55:15;;;;;;;58.08;25.80;;;;;;;;;;6245998;23;20070;-63
2022/12/04 08:57:42;;;;;;;56.72;26.05;;;;;;;;;;6246029;23;20074;-63
2022/12/04 09:00:08;;;;;;;57.20;26.67;;;;;;;;;;6246643;23;20004;-63
2022/12/04 09:02:34;;;;;;;60.83;27.45;;;;;;;;;;6246054;23;20012;-63
2022/12/04 09:05:00;;;;;;;68.57;27.67;;;;;;;;;;6246119;23;20000;-63
2022/12/04 09:07:26;;;;;;;69.90;33.30;;;;;;;;;;6244248;23;20012;-63
2022/12/04 09:09:52;;;;;;;62.67;30.77;;;;;;;;;;6244958;23;20010;-63
2022/12/04 09:12:18;;;;;;;62.75;28.85;;;;;;;;;;6244446;23;20054;-63
2022/12/04 09:14:45;;;;;;;57.58;27.30;;;;;;;;;;6245462;23;20075;-63
2022/12/04 09:17:11;;;;;;;62.85;29.05;;;;;;;;;;6244596;23;20035;-63
2022/12/04 09:19:37;;;;;;;66.13;29.25;;;;;;;;;;6242612;23;20050;-63
2022/12/04 09:22:03;;;;;;;59.70;28.27;;;;;;;;;;6243465;22;20107;-63
2022/12/04 09:24:30;;;;;;;116.85;52.92;;;;;;;;;;6243503;23;20000;-63
2022/12/04 09:26:56;;;;;;;88.35;42.92;;;;;;;;;;6242211;23;20019;-63
2022/12/04 09:29:22;;;;;;;78.85;36.60;;;;;;;;;;6241843;23;20010;-63
2022/12/04 09:31:48;;;;;;;67.45;30.38;;;;;;;;;;6242672;23;20007;-63
2022/12/04 09:34:14;;;;;;;66.75;30.15;;;;;;;;;;6241449;23;20501;-63
2022/12/04 09:36:40;;;;;;;66.93;29.35;;;;;;;;;;6242050;23;20000;-64
2022/12/04 09:39:06;;;;;;;67.10;30.02;;;;;;;;;;6242264;23;20079;-64
2022/12/04 09:41:36;;;;;;;66.07;30.42;;;;;;;;;;6242363;23;20020;-65
2022/12/04 09:44:17;;;;;;;70.18;32.75;;;;;;;;;;6243368;23;20011;-64
2022/12/04 09:47:03;;;;;;;66.88;31.98;;;;;;;;;;6242910;23;20042;-65
2022/12/04 09:49:35;;;;;;;65.88;31.15;;;;;;;;;;6221893;23;20016;-64
2022/12/04 09:52:03;;;;;;;71.18;29.05;;;;;;;;;;6244012;23;20000;-64
2022/12/04 09:54:37;;;;;;;62.20;28.95;;;;;;;;;;6242944;23;20004;-65
2022/12/04 09:57:08;;;;;;;68.22;30.60;;;;;;;;;;6243868;22;20008;-64
2022/12/04 09:59:34;;;;;;;64.30;28.70;;;;;;;;;;6242900;23;20395;-64
2022/12/04 10:02:03;;;;;;;66.68;29.92;;;;;;;;;;6243671;23;20043;-64
2022/12/04 10:04:30;;;;;;;72.07;32.00;;;;;;;;;;6243589;23;20012;-64
2022/12/04 10:07:02;;;;;;;67.90;32.25;;;;;;;;;;6243248;23;20426;-64
2022/12/04 10:09:41;;;;;;;65.45;29.02;;;;;;;;;;6242507;23;20008;-64
2022/12/04 10:12:22;;;;;;;104.28;47.95;;;;;;;;;;6242787;23;20016;-64
2022/12/04 10:14:48;;;;;;;68.85;33.47;;;;;;;;;;6243049;23;20058;-64
2022/12/04 10:17:26;;;;;;;66.70;30.55;;;;;;;;;;6242157;23;20007;-64
2022/12/04 10:19:52;;;;;;;61.78;29.85;;;;;;;;;;6242536;23;20353;-65
2022/12/04 10:22:24;;;;;;;61.28;30.25;;;;;;;;;;6242601;23;20408;-63
2022/12/04 10:24:55;;;;;;;68.65;29.00;;;;;;;;;;6242361;23;20449;-63
2022/12/04 10:27:30;;;;;;;57.25;27.25;;;;;;;;;;6242876;23;20015;-64
2022/12/04 10:30:00;;;;;;;61.20;28.92;;;;;;;;;;6241557;23;20015;-63
2022/12/04 10:32:28;;;;;;;61.55;27.95;;;;;;;;;;6242303;23;20034;-64
2022/12/04 10:34:56;;;;;;;70.57;31.75;;;;;;;;;;6241597;23;20000;-63
2022/12/04 10:37:23;;;;;;;61.90;29.17;;;;;;;;;;6242598;23;20082;-63
2022/12/04 10:39:52;;;;;;;77.03;35.58;;;;;;;;;;6241493;23;20598;-63
2022/12/04 10:42:25;;;;;;;123.55;52.03;;;;;;;;;;6242719;22;20061;-64
2022/12/04 10:44:51;;;;;;;92.18;48.03;;;;;;;;;;6242760;23;20015;-64
2022/12/04 10:47:18;;;;;;;63.47;29.77;;;;;;;;;;6241815;23;20040;-64
2022/12/04 10:49:44;;;;;;;62.88;28.33;;;;;;;;;;6241611;23;20006;-64
2022/12/04 10:52:12;;;;;;;64.45;33.58;;;;;;;;;;6242494;23;20004;-64
2022/12/04 10:54:47;;;;;;;59.13;27.80;;;;;;;;;;6242174;23;20346;-64
2022/12/04 10:57:13;;;;;;;64.60;28.25;;;;;;;;;;6241499;23;20019;-64
2022/12/04 10:59:53;;;;;;;61.67;28.25;;;;;;;;;;6241490;23;20119;-64
2022/12/04 11:02:24;;;;;;;57.20;27.73;;;;;;;;;;6242329;22;20008;-64
2022/12/04 11:04:58;;;;;;;64.53;28.42;;;;;;;;;;6241587;23;20008;-64
2022/12/04 11:07:28;;;;;;;60.10;27.42;;;;;;;;;;6242166;23;20057;-64
2022/12/04 11:10:05;;;;;;;63.60;28.48;;;;;;;;;;6241662;23;20008;-64
2022/12/04 11:12:31;;;;;;;60.13;26.77;;;;;;;;;;6242733;23;20019;-64
2022/12/04 11:15:01;;;;;;;54.15;25.88;;;;;;;;;;6242972;23;20032;-64
2022/12/04 11:17:27;;;;;;;56.42;26.05;;;;;;;;;;6242313;23;20015;-64
2022/12/04 11:20:01;;;;;;;55.88;26.48;;;;;;;;;;6241746;23;20004;-64
2022/12/04 11:22:27;;;;;;;49.97;24.67;;;;;;;;;;6240381;23;20012;-64
2022/12/04 11:24:54;;;;;;;49.70;23.30;;;;;;;;;;6241722;23;20089;-64
2022/12/04 11:27:33;;;;;;;52.92;24.63;;;;;;;;;;6242209;23;20008;-63
2022/12/04 11:30:07;;;;;;;53.17;25.20;;;;;;;;;;6241726;23;20008;-64
2022/12/04 11:32:33;;;;;;;50.05;24.58;;;;;;;;;;6242823;23;20027;-64
2022/12/04 11:35:20;;;;;;;50.60;23.30;;;;;;;;;;6242262;23;20453;-64
2022/12/04 11:38:05;;;;;;;48.60;23.70;;;;;;;;;;6242044;23;20094;-64
2022/12/04 11:40:31;;;;;;;50.28;23.38;;;;;;;;;;6242739;23;20008;-64
2022/12/04 11:42:59;;;;;;;52.40;25.35;;;;;;;;;;6242438;23;20350;-64
2022/12/04 11:45:25;;;;;;;44.97;23.63;;;;;;;;;;6242626;23;20446;-65
2022/12/04 11:47:59;;;;;;;53.90;24.63;;;;;;;;;;6241985;23;20075;-64
2022/12/04 11:50:25;;;;;;;51.40;24.23;;;;;;;;;;6242511;23;20004;-64
2022/12/04 11:53:09;;;;;;;45.17;24.10;;;;;;;;;;6241995;23;20001;-64
2022/12/04 11:55:35;;;;;;;41.85;21.45;;;;;;;;;;6241840;23;20008;-64
2022/12/04 11:58:20;;;;;;;50.25;22.75;;;;;;;;;;6241000;23;19996;-64
2022/12/04 12:01:05;;;;;;;47.13;23.42;;;;;;;;;;6241498;23;20039;-64
2022/12/04 12:03:34;;;;;;;50.55;24.90;;;;;;;;;;6241372;23;20454;-64
2022/12/04 12:06:03;;;;;;;51.42;24.60;;;;;;;;;;6239738;23;20073;-64
2022/12/04 12:08:55;;;;;;;55.70;26.20;;;;;;;;;;6240769;23;20012;-64
2022/12/04 12:11:41;;;;;;;56.92;27.55;;;;;;;;;;6241442;23;20015;-65
2022/12/04 12:14:07;;;;;;;49.72;23.60;;;;;;;;;;6221485;23;20020;-64
2022/12/04 12:17:00;;;;;;;50.47;24.45;;;;;;;;;;6241261;23;20082;-64
2022/12/04 12:19:29;;;;;;;48.90;24.40;;;;;;;;;;6236549;23;20015;-64
2022/12/04 12:22:20;;;;;;;50.13;23.35;;;;;;;;;;6241915;23;20496;-64
2022/12/04 12:25:17;;;;;;;48.50;23.95;;;;;;;;;;6241821;23;20331;-64
2022/12/04 12:28:00;;;;;;;53.85;24.52;;;;;;;;;;6118459;23;20013;-64
2022/12/04 12:30:28;;;;;;;49.05;24.05;;;;;;;;;;6119078;23;20014;-64
2022/12/04 12:32:54;;;;;;;55.08;24.85;;;;;;;;;;6120049;23;20002;-64
2022/12/04 12:35:32;;;;;;;56.67;26.63;;;;;;;;;;6119408;23;20029;-64
2022/12/04 12:38:04;;;;;;;74.65;39.80;;;;;;;;;;6120438;23;20531;-64
2022/12/04 12:40:36;;;;;;;67.78;34.33;;;;;;;;;;6119126;23;20009;-64
2022/12/04 12:43:05;;;;;;;59.97;31.17;;;;;;;;;;6120721;23;20025;-64
2022/12/04 12:45:40;;;;;;;49.10;24.23;;;;;;;;;;6121041;23;20572;-64
2022/12/04 12:48:15;;;;;;;56.70;26.15;;;;;;;;;;6120672;23;20111;-64
2022/12/04 12:50:44;;;;;;;50.45;23.95;;;;;;;;;;6120489;23;20018;-64
2022/12/04 12:53:12;;;;;;;50.75;23.95;;;;;;;;;;6120111;23;20006;-65
2022/12/04 12:55:42;;;;;;;49.88;23.02;;;;;;;;;;6118485;23;20063;-65
2022/12/04 12:58:20;;;;;;;56.35;26.80;;;;;;;;;;6120056;23;20006;-65
2022/12/04 13:00:55;;;;;;;53.00;26.48;;;;;;;;;;6119878;23;20009;-65
2022/12/04 13:03:24;;;;;;;58.03;25.70;;;;;;;;;;6144571;23;20061;-65
2022/12/04 13:05:53;;;;;;;54.28;25.73;;;;;;;;;;6241946;23;20046;-65
2022/12/04 13:08:26;;;;;;;59.10;27.00;;;;;;;;;;6240962;23;20043;-65
2022/12/04 13:10:52;;;;;;;;;;;;;;;;;;6244743;22;20382;-65
2022/12/04 13:13:26;;;;;;;53.08;24.33;;;;;;;;;;6244477;23;19915;-65
2022/12/04 13:16:03;;;;;;;54.42;27.17;;;;;;;;;;6244931;23;20446;-65
2022/12/04 13:18:36;;;;;;;55.72;26.23;;;;;;;;;;6243644;23;20350;-65
2022/12/04 13:21:05;;;;;;;147.30;51.00;;;;;;;;;;6244155;23;20054;-65
2022/12/04 13:23:47;;;;;;;53.03;26.55;;;;;;;;;;6243930;23;20004;-65
2022/12/04 13:26:40;;;;;;;47.55;24.65;;;;;;;;;;6244580;23;20011;-65
2022/12/04 13:29:17;;;;;;;49.17;25.67;;;;;;;;;;6243551;23;20044;-65
2022/12/04 13:31:52;;;;;;;49.60;25.25;;;;;;;;;;6243942;23;20008;-65
2022/12/04 13:34:22;;;;;;;49.75;23.67;;;;;;;;;;6244188;23;20695;-65
2022/12/04 13:37:06;;;;;;;48.25;23.70;;;;;;;;;;6243357;23;20071;-65
2022/12/04 13:39:38;;;;;;;64.18;24.05;;;;;;;;;;6243091;23;20039;-64
2022/12/04 13:42:06;;;;;;;49.17;24.95;;;;;;;;;;6243863;23;20012;-64
2022/12/04 13:44:33;;;;;;;47.28;24.02;;;;;;;;;;6243118;23;20004;-64
2022/12/04 13:46:59;;;;;;;52.35;24.30;;;;;;;;;;6243221;23;20008;-64
2022/12/04 13:49:30;;;;;;;51.75;25.85;;;;;;;;;;6243680;23;20004;-64
2022/12/04 13:51:57;;;;;;;48.55;24.63;;;;;;;;;;6243352;23;20015;-64
2022/12/04 13:54:34;;;;;;;52.75;24.55;;;;;;;;;;6243778;23;20028;-65
2022/12/04 13:57:16;;;;;;;56.20;25.83;;;;;;;;;;6243804;23;20000;-64
2022/12/04 13:59:42;;;;;;;49.67;24.80;;;;;;;;;;6243267;23;20062;-64
2022/12/04 14:02:23;;;;;;;57.70;24.35;;;;;;;;;;6243421;23;20008;-64
2022/12/04 14:05:06;;;;;;;48.05;24.15;;;;;;;;;;6242830;23;20008;-64
2022/12/04 14:07:33;;;;;;;50.65;23.67;;;;;;;;;;6242744;23;20018;-64
2022/12/04 14:10:03;;;;;;;48.83;22.67;;;;;;;;;;6242949;23;20004;-64
2022/12/04 14:12:33;;;;;;;51.15;25.25;;;;;;;;;;6242422;22;20065;-64
2022/12/04 14:15:01;;;;;;;56.88;27.05;;;;;;;;;;6242802;23;20099;-65
2022/12/04 14:17:34;;;;;;;55.25;24.70;;;;;;;;;;6242426;23;20000;-64
2022/12/04 14:20:02;;;;;;;51.47;25.85;;;;;;;;;;6242473;23;20016;-64
2022/12/04 14:22:34;;;;;;;56.92;26.33;;;;;;;;;;6243220;23;20406;-64
2022/12/04 14:25:20;;;;;;;59.30;26.00;;;;;;;;;;6243117;23;20015;-64
2022/12/04 14:27:50;;;;;;;62.20;27.23;;;;;;;;;;6242152;23;20016;-64
2022/12/04 14:30:16;;;;;;;55.05;23.80;;;;;;;;;;6242107;22;20034;-65
2022/12/04 14:32:43;;;;;;;56.67;25.38;;;;;;;;;;6242506;23;20023;-64
2022/12/04 14:35:17;;;;;;;51.15;25.38;;;;;;;;;;6242352;23;20490;-64
2022/12/04 14:37:56;;;;;;;48.65;21.98;;;;;;;;;;6242531;23;20007;-64
2022/12/04 14:40:27;;;;;;;54.17;24.13;;;;;;;;;;6243716;23;20012;-64
2022/12/04 14:42:54;;;;;;;47.97;21.95;;;;;;;;;;6242292;23;20015;-64